Time;durP1;ratioP1;P1;durP2;ratioP2;P2;SDS_P1;SDS_P2;PMS_P1;PMS_P2;Temp;Humidity;BMP_temperature;BMP_pressure;BME280_temperature;BME280_humidity;BME280_pressure;Samples;Min_cycle;Max_cycle;Signal;HPM_P1;HPM_P2
2022/08/13 00:01:24;;;;;;;;;;;;;;;;;;5050809;28;1087;-71
2022/08/13 00:03:53;;;;;;;;;;;;;;;;;;5050949;28;1023;-72
2022/08/13 00:06:30;;;;;;;;;;;;;;;;;;5050805;28;1977;-71
2022/08/13 00:08:56;;;;;;;;;;;;;;;;;;5050750;28;1312;-72
2022/08/13 00:14:07;;;;;;;;;;;;;;;;;;5050808;28;1004;-72
2022/08/13 00:16:37;;;;;;;;;;;;;;;;;;5050703;28;1071;-71
2022/08/13 00:19:04;;;;;;;;;;;;;;;;;;5050721;28;1415;-72
2022/08/13 00:21:30;;;;;;;;;;;;;;;;;;5049016;28;917;-72
2022/08/13 00:23:57;;;;;;;;;;;;;;;;;;5061599;28;1648;-70
2022/08/13 00:26:25;;;;;;;;;;;;;;;;;;5074456;28;1973;-72
2022/08/13 00:28:53;;;;;;;;;;;;;;;;;;5074212;28;1306;-72
2022/08/13 00:31:19;;;;;;;;;;;;;;;;;;5073180;28;1369;-72
2022/08/13 00:33:45;;;;;;;;;;;;;;;;;;5074184;28;786;-72
2022/08/13 00:36:13;;;;;;;;;;;;;;;;;;5074178;28;1127;-71
2022/08/13 00:38:45;;;;;;;;;;;;;;;;;;5074388;28;1327;-72
2022/08/13 00:41:13;;;;;;;;;;;;;;;;;;5074094;28;933;-71
2022/08/13 00:43:39;;;;;;;;;;;;;;;;;;5073964;28;1059;-71
2022/08/13 00:46:05;;;;;;;;;;;;;;;;;;5072556;28;1917;-71
2022/08/13 00:48:43;;;;;;;;;;;;;;;;;;5074255;28;1307;-71
2022/08/13 00:51:10;;;;;;;;;;;;;;;;;;5073727;28;1088;-72
2022/08/13 00:53:39;;;;;;;;;;;;;;;;;;5073874;28;1114;-71
2022/08/13 00:56:05;;;;;;;;;;;;;;;;;;5074127;28;1403;-71
2022/08/13 00:58:33;;;;;;;;;;;;;;;;;;5073900;28;1312;-71
2022/08/13 01:01:00;;;;;;;;;;;;;;;;;;5073760;28;1076;-71
2022/08/13 01:03:27;;;;;;;;;;;;;;;;;;5073944;28;881;-71
2022/08/13 01:05:54;;;;;;;;;;;;;;;;;;5072390;28;1976;-72
2022/08/13 01:08:21;;;;;;;;;;;;;;;;;;5074016;28;960;-72
2022/08/13 01:10:49;;;;;;;;;;;;;;;;;;5073582;28;1290;-70
2022/08/13 01:13:16;;;;;;;;;;;;;;;;;;5073214;28;813;-71
2022/08/13 01:15:42;;;;;;;;;;;;;;;;;;5073634;28;1142;-71
2022/08/13 01:18:12;;;;;;;;;;;;;;;;;;5073583;28;1087;-72
2022/08/13 01:20:39;;;;;;;;;;;;;;;;;;5072131;28;1501;-71
2022/08/13 01:23:08;;;;;;;;;;;;;;;;;;5073512;28;825;-71
2022/08/13 01:25:35;;;;;;;;;;;;;;;;;;5073249;28;1973;-71
2022/08/13 01:28:01;;;;;;;;;;;;;;;;;;5073130;28;1166;-72
2022/08/13 01:30:27;;;;;;;;;;;;;;;;;;5071799;28;1478;-71
2022/08/13 01:32:54;;;;;;;;;;;;;;;;;;5072780;28;965;-71
2022/08/13 01:35:21;;;;;;;;;;;;;;;;;;5073180;28;1083;-72
2022/08/13 01:37:53;;;;;;;;;;;;;;;;;;5073200;28;1272;-71
2022/08/13 01:40:21;;;;;;;;;;;;;;;;;;5073092;28;1332;-71
2022/08/13 01:42:48;;;;;;;;;;;;;;;;;;5073002;28;889;-71
2022/08/13 01:45:15;;;;;;;;;;;;;;;;;;5073113;28;1918;-71
2022/08/13 01:50:31;;;;;;;;;;;;;;;;;;5073063;28;1333;-72
2022/08/13 01:53:01;;;;;;;;;;;;;;;;;;5072700;28;877;-72
2022/08/13 01:55:30;;;;;;;;;;;;;;;;;;5072933;28;1075;-71
2022/08/13 01:57:56;;;;;;;;;;;;;;;;;;5071682;28;1198;-71
2022/08/13 02:00:23;;;;;;;;;;;;;;;;;;5072946;28;1304;-72
2022/08/13 02:02:49;;;;;;;;;;;;;;;;;;5072512;28;1074;-72
2022/08/13 02:05:15;;;;;;;;;;;;;;;;;;5072686;28;1914;-71
2022/08/13 02:07:43;;;;;;;;;;;;;;;;;;5072992;28;951;-71
2022/08/13 02:10:09;;;;;;;;;;;;;;;;;;5072394;28;1321;-71
2022/08/13 02:12:36;;;;;;;;;;;;;;;;;;5072289;28;1012;-71
2022/08/13 02:15:04;;;;;;;;;;;;;;;;;;5071230;28;1195;-71
2022/08/13 02:17:33;;;;;;;;;;;;;;;;;;5069232;28;1470;-72
2022/08/13 02:19:59;;;;;;;;;;;;;;;;;;5072523;28;1383;-71
2022/08/13 02:22:25;;;;;;;;;;;;;;;;;;5071930;28;976;-71
2022/08/13 02:24:52;;;;;;;;;;;;;;;;;;5072438;28;1063;-72
2022/08/13 02:27:20;;;;;;;;;;;;;;;;;;5072707;28;1989;-72
2022/08/13 02:29:47;;;;;;;;;;;;;;;;;;5072251;28;1317;-72
2022/08/13 02:32:13;;;;;;;;;;;;;;;;;;5071924;28;1126;-71
2022/08/13 02:34:40;;;;;;;;;;;;;;;;;;5072273;28;774;-71
2022/08/13 02:37:06;;;;;;;;;;;;;;;;;;5071825;28;1117;-71
2022/08/13 02:39:32;;;;;;;;;;;;;;;;;;5070579;28;1324;-72
2022/08/13 02:41:57;;;;;;;;;;;;;;;;;;5071681;28;1145;-71
2022/08/13 02:44:25;;;;;;;;;;;;;;;;;;5072006;28;836;-71
2022/08/13 02:46:52;;;;;;;;;;;;;;;;;;5071282;28;1977;-72
2022/08/13 02:49:21;;;;;;;;;;;;;;;;;;5072083;28;1408;-70
2022/08/13 02:51:47;;;;;;;;;;;;;;;;;;5063863;28;2041;-71
2022/08/13 02:54:16;;;;;;;;;;;;;;;;;;5051440;28;1058;-72
2022/08/13 02:56:43;;;;;;;;;;;;;;;;;;5051778;28;1201;-71
2022/08/13 02:59:10;;;;;;;;;;;;;;;;;;5051301;28;1376;-72
2022/08/13 03:01:38;;;;;;;;;;;;;;;;;;5050028;28;1136;-71
2022/08/13 03:04:05;;;;;;;;;;;;;;;;;;5051665;28;877;-71
2022/08/13 03:06:32;;;;;;;;;;;;;;;;;;5051579;28;1922;-72
2022/08/13 03:09:01;;;;;;;;;;;;;;;;;;5051450;28;1308;-71
2022/08/13 03:11:27;;;;;;;;;;;;;;;;;;5051124;28;1084;-71
2022/08/13 03:13:54;;;;;;;;;;;;;;;;;;5085783;22;3553;-77
2022/08/13 03:16:22;;;;;;;;;;;;;;;;;;5081717;28;1285;-76
2022/08/13 03:18:49;;;;;;;;;;;;;;;;;;5091547;28;1110;-77
2022/08/13 03:21:20;;;;;;;;;;;;;;;;;;5091577;28;944;-78
2022/08/13 03:23:46;;;;;;;;;;;;;;;;;;5091301;28;1403;-76
2022/08/13 03:26:12;;;;;;;;;;;;;;;;;;5091565;28;1977;-75
2022/08/13 03:28:39;;;;;;;;;;;;;;;;;;5091695;28;1067;-76
2022/08/13 03:31:05;;;;;;;;;;;;;;;;;;5091621;28;1150;-76
2022/08/13 03:33:32;;;;;;;;;;;;;;;;;;5091160;28;1302;-76
2022/08/13 03:35:58;;;;;;;;;;;;;;;;;;5091468;28;1109;-76
2022/08/13 03:38:25;;;;;;;;;;;;;;;;;;5073315;28;1260;-74
2022/08/13 03:41:11;;;;;;;;;;;;;;;;;;5091188;28;1135;-75
2022/08/13 03:43:38;;;;;;;;;;;;;;;;;;5091009;28;1391;-75
2022/08/13 03:46:04;;;;;;;;;;;;;;;;;;5092281;28;1976;-76
2022/08/13 03:48:30;;;;;;;;;;;;;;;;;;5092081;28;1142;-76
2022/08/13 03:51:00;;;;;;;;;;;;;;;;;;5091672;28;778;-76
2022/08/13 03:53:27;;;;;;;;;;;;;;;;;;5090833;28;1411;-76
2022/08/13 03:55:54;;;;;;;;;;;;;;;;;;5091206;28;1067;-76
2022/08/13 03:58:21;;;;;;;;;;;;;;;;;;5091334;28;1074;-76
2022/08/13 04:00:48;;;;;;;;;;;;;;;;;;5095266;28;1127;-75
2022/08/13 04:03:16;;;;;;;;;;;;;;;;;;5095258;28;1369;-76
2022/08/13 04:05:42;;;;;;;;;;;;;;;;;;5095380;28;1971;-76
2022/08/13 04:08:10;;;;;;;;;;;;;;;;;;5095505;28;893;-75
2022/08/13 04:10:37;;;;;;;;;;;;;;;;;;5076952;28;1230;-76
2022/08/13 04:13:04;;;;;;;;;;;;;;;;;;5094775;28;1419;-76
2022/08/13 04:15:30;;;;;;;;;;;;;;;;;;5084857;28;2197;-76
2022/08/13 04:17:56;;;;;;;;;;;;;;;;;;5056756;28;1130;-77
2022/08/13 04:20:23;;;;;;;;;;;;;;;;;;5074842;28;947;-77
2022/08/13 04:22:50;;;;;;;;;;;;;;;;;;5074292;28;1317;-77
2022/08/13 04:25:17;;;;;;;;;;;;;;;;;;5074727;28;1071;-76
2022/08/13 04:27:44;;;;;;;;;;;;;;;;;;5074121;28;1914;-76
2022/08/13 04:30:10;;;;;;;;;;;;;;;;;;5074420;28;1075;-76
2022/08/13 04:32:40;;;;;;;;;;;;;;;;;;5089662;28;1416;-76
2022/08/13 04:35:07;;;;;;;;;;;;;;;;;;5074430;28;1059;-75
2022/08/13 04:37:33;;;;;;;;;;;;;;;;;;5074548;28;1107;-77
2022/08/13 04:39:59;;;;;;;;;;;;;;;;;;5074530;28;802;-76
2022/08/13 04:42:26;;;;;;;;;;;;;;;;;;5073925;28;1284;-76
2022/08/13 04:44:53;;;;;;;;;;;;;;;;;;5074242;28;1060;-75
2022/08/13 04:47:19;;;;;;;;;;;;;;;;;;5079555;28;1980;-76
2022/08/13 04:49:49;;;;;;;;;;;;;;;;;;5081039;28;1313;-76
2022/08/13 04:52:15;;;;;;;;;;;;;;;;;;5077271;28;1477;-77
2022/08/13 04:54:42;;;;;;;;;;;;;;;;;;5081992;28;1365;-75
2022/08/13 04:57:08;;;;;;;;;;;;;;;;;;5083794;28;1353;-75
2022/08/13 04:59:35;;;;;;;;;;;;;;;;;;5067740;28;1244;-75
2022/08/13 05:02:02;;;;;;;;;;;;;;;;;;5076660;28;1149;-75
2022/08/13 05:04:28;;;;;;;;;;;;;;;;;;5073830;28;1317;-74
2022/08/13 05:06:55;;;;;;;;;;;;;;;;;;5055793;28;1985;-74
2022/08/13 05:09:21;;;;;;;;;;;;;;;;;;5073418;28;1013;-75
2022/08/13 05:11:48;;;;;;;;;;;;;;;;;;5073329;28;1084;-75
2022/08/13 05:14:14;;;;;;;;;;;;;;;;;;5073677;28;1306;-76
2022/08/13 05:16:40;;;;;;;;;;;;;;;;;;5073607;28;835;-75
2022/08/13 05:19:08;;;;;;;;;;;;;;;;;;5073740;28;1084;-76
2022/08/13 05:21:34;;;;;;;;;;;;;;;;;;5073262;28;1259;-75
2022/08/13 05:24:00;;;;;;;;;;;;;;;;;;5073315;28;1380;-75
2022/08/13 05:26:31;;;;;;;;;;;;;;;;;;5073525;28;1968;-75
2022/08/13 05:29:04;;;;;;;;;;;;;;;;;;5073482;28;849;-76
2022/08/13 05:31:30;;;;;;;;;;;;;;;;;;5081960;28;1527;-74
2022/08/13 05:33:57;;;;;;;;;;;;;;;;;;5085007;28;1485;-76
2022/08/13 05:36:28;;;;;;;;;;;;;;;;;;5087315;28;1391;-77
2022/08/13 05:38:54;;;;;;;;;;;;;;;;;;5070735;28;1970;-75
2022/08/13 05:41:20;;;;;;;;;;;;;;;;;;5072711;28;1348;-75
2022/08/13 05:43:50;;;;;;;;;;;;;;;;;;5078171;28;1534;-75
2022/08/13 05:46:16;;;;;;;;;;;;;;;;;;5070901;28;1906;-75
2022/08/13 05:48:55;;;;;;;;;;;;;;;;;;5071039;28;1126;-76
2022/08/13 05:51:24;;;;;;;;;;;;;;;;;;5074024;28;1598;-76
2022/08/13 05:53:54;;;;;;;;;;;;;;;;;;5098165;28;1383;-75
2022/08/13 05:56:21;;;;;;;;;;;;;;;;;;5091086;28;1083;-75
2022/08/13 05:58:48;;;;;;;;;;;;;;;;;;5090962;28;1071;-76
2022/08/13 06:04:00;;;;;;;;;;;;;;;;;;5070381;28;1513;-75
2022/08/13 06:06:28;;;;;;;;;;;;;;;;;;5052921;28;1963;-76
2022/08/13 06:08:59;;;;;;;;;;;;;;;;;;5070554;28;1122;-76
2022/08/13 06:11:25;;;;;;;;;;;;;;;;;;5075861;28;1410;-75
2022/08/13 06:13:51;;;;;;;;;;;;;;;;;;5077101;28;1407;-75
2022/08/13 06:16:20;;;;;;;;;;;;;;;;;;5078344;28;1374;-76
2022/08/13 06:18:48;;;;;;;;;;;;;;;;;;5079218;28;1419;-76
2022/08/13 06:21:15;;;;;;;;;;;;;;;;;;5069201;28;1248;-75
2022/08/13 06:23:42;;;;;;;;;;;;;;;;;;5053716;28;1457;-75
2022/08/13 06:26:11;;;;;;;;;;;;;;;;;;5053718;28;1408;-75
2022/08/13 06:28:38;;;;;;;;;;;;;;;;;;5053353;28;1975;-75
2022/08/13 06:31:04;;;;;;;;;;;;;;;;;;5071612;28;1246;-75
2022/08/13 06:33:31;;;;;;;;;;;;;;;;;;5068637;28;1401;-76
2022/08/13 06:35:58;;;;;;;;;;;;;;;;;;5071499;28;1335;-75
2022/08/13 06:38:27;;;;;;;;;;;;;;;;;;5071079;28;1410;-75
2022/08/13 06:40:53;;;;;;;;;;;;;;;;;;5068374;28;1378;-75
2022/08/13 06:43:21;;;;;;;;;;;;;;;;;;5080752;28;1491;-76
2022/08/13 06:45:48;;;;;;;;;;;;;;;;;;5084945;28;1660;-75
2022/08/13 06:48:15;;;;;;;;;;;;;;;;;;5087308;28;1914;-73
2022/08/13 06:50:41;;;;;;;;;;;;;;;;;;5073539;28;1465;-76
2022/08/13 06:53:08;;;;;;;;;;;;;;;;;;5069842;28;1493;-74
2022/08/13 06:55:36;;;;;;;;;;;;;;;;;;5077035;28;1478;-75
2022/08/13 06:58:03;;;;;;;;;;;;;;;;;;5080077;28;1133;-75
2022/08/13 07:00:31;;;;;;;;;;;;;;;;;;5076454;28;1806;-76
2022/08/13 07:02:57;;;;;;;;;;;;;;;;;;5082998;28;1491;-75
2022/08/13 07:05:31;;;;;;;;;;;;;;;;;;5091895;28;1110;-76
2022/08/13 07:07:58;;;;;;;;;;;;;;;;;;5091789;28;1914;-75
2022/08/13 07:10:24;;;;;;;;;;;;;;;;;;5101149;28;1817;-75
2022/08/13 07:12:51;;;;;;;;;;;;;;;;;;5082868;28;1526;-75
2022/08/13 07:15:17;;;;;;;;;;;;;;;;;;5083154;28;1169;-75
2022/08/13 07:17:45;;;;;;;;;;;;;;;;;;5073407;28;1365;-75
2022/08/13 07:20:12;;;;;;;;;;;;;;;;;;5091416;28;1126;-75
2022/08/13 07:22:38;;;;;;;;;;;;;;;;;;5081202;28;1719;-76
2022/08/13 07:25:05;;;;;;;;;;;;;;;;;;5053037;28;1336;-76
2022/08/13 07:27:31;;;;;;;;;;;;;;;;;;5070511;28;1906;-76
2022/08/13 07:29:59;;;;;;;;;;;;;;;;;;5052620;28;1174;-76
2022/08/13 07:32:27;;;;;;;;;;;;;;;;;;5052457;28;1339;-76
2022/08/13 07:34:56;;;;;;;;;;;;;;;;;;5052718;28;1163;-76
2022/08/13 07:37:22;;;;;;;;;;;;;;;;;;5071064;28;904;-75
2022/08/13 07:39:48;;;;;;;;;;;;;;;;;;5070657;28;988;-77
2022/08/13 07:42:15;;;;;;;;;;;;;;;;;;5070366;28;1146;-77
2022/08/13 07:44:41;;;;;;;;;;;;;;;;;;5070487;28;1438;-76
2022/08/13 07:47:11;;;;;;;;;;;;;;;;;;5070708;28;1930;-75
2022/08/13 07:49:37;;;;;;;;;;;;;;;;;;5070717;28;961;-76
2022/08/13 07:52:07;;;;;;;;;;;;;;;;;;5070807;28;1059;-76
2022/08/13 07:54:34;;;;;;;;;;;;;;;;;;5071026;28;1380;-76
2022/08/13 07:57:00;;;;;;;;;;;;;;;;;;5071100;28;679;-76
2022/08/13 07:59:28;;;;;;;;;;;;;;;;;;5071147;28;829;-75
2022/08/13 08:01:55;;;;;;;;;;;;;;;;;;5070698;28;885;-76
2022/08/13 08:04:24;;;;;;;;;;;;;;;;;;5068731;28;1388;-76
2022/08/13 08:06:50;;;;;;;;;;;;;;;;;;5068612;28;1914;-76
2022/08/13 08:09:18;;;;;;;;;;;;;;;;;;5068668;28;1322;-76
2022/08/13 08:14:28;;;;;;;;;;;;;;;;;;5065383;28;1373;-75
2022/08/13 08:16:54;;;;;;;;;;;;;;;;;;5050413;28;1387;-75
2022/08/13 08:19:21;;;;;;;;;;;;;;;;;;5068176;28;1211;-75
2022/08/13 08:21:47;;;;;;;;;;;;;;;;;;5067851;28;1180;-76
2022/08/13 08:24:14;;;;;;;;;;;;;;;;;;5068829;28;1335;-76
2022/08/13 08:26:41;;;;;;;;;;;;;;;;;;5066830;28;1146;-76
2022/08/13 08:29:09;;;;;;;;;;;;;;;;;;5068283;28;1976;-75
2022/08/13 08:31:38;;;;;;;;;;;;;;;;;;5049706;28;1420;-75
2022/08/13 08:34:07;;;;;;;;;;;;;;;;;;5067923;28;1406;-76
2022/08/13 08:36:36;;;;;;;;;;;;;;;;;;5068337;28;1390;-76
2022/08/13 08:44:32;;;;;;;;;;;;;;;;;;5048744;28;1373;-74
2022/08/13 08:46:59;;;;;;;;;;;;;;;;;;5069973;28;1973;-73
2022/08/13 08:49:25;;;;;;;;;;;;;;;;;;5055912;28;1324;-72
2022/08/13 08:51:52;;;;;;;;;;;;;;;;;;5072227;28;1155;-74
2022/08/13 08:54:18;;;;;;;;;;;;;;;;;;5072746;28;1400;-74
2022/08/13 08:56:45;;;;;;;;;;;;;;;;;;5073155;28;1079;-74
2022/08/13 08:59:13;;;;;;;;;;;;;;;;;;5073788;28;1080;-74
2022/08/13 09:01:39;;;;;;;;;;;;;;;;;;5073544;28;1078;-73
2022/08/13 09:04:06;;;;;;;;;;;;;;;;;;5073846;28;1357;-73
2022/08/13 09:06:32;;;;;;;;;;;;;;;;;;5073988;28;981;-74
2022/08/13 09:08:58;;;;;;;;;;;;;;;;;;5055850;28;1993;-73
2022/08/13 09:11:25;;;;;;;;;;;;;;;;;;5073680;28;1075;-73
2022/08/13 09:13:52;;;;;;;;;;;;;;;;;;5073311;28;1298;-73
2022/08/13 09:16:19;;;;;;;;;;;;;;;;;;5089509;22;3697;-71
2022/08/13 09:18:45;;;;;;;;;;;;;;;;;;5060288;28;1069;-71
2022/08/13 09:21:12;;;;;;;;;;;;;;;;;;5092557;28;1146;-71
2022/08/13 09:23:42;;;;;;;;;;;;;;;;;;5093508;28;1111;-71
2022/08/13 09:26:10;;;;;;;;;;;;;;;;;;5093458;28;1423;-71
2022/08/13 09:28:36;;;;;;;;;;;;;;;;;;5093827;28;1910;-71
2022/08/13 09:31:03;;;;;;;;;;;;;;;;;;5075193;28;1019;-71
2022/08/13 09:33:31;;;;;;;;;;;;;;;;;;5093343;28;1121;-70
2022/08/13 09:35:57;;;;;;;;;;;;;;;;;;5093586;28;1324;-71
2022/08/13 09:38:23;;;;;;;;;;;;;;;;;;5093355;28;1094;-71
2022/08/13 09:40:52;;;;;;;;;;;;;;;;;;5093451;28;1002;-72
2022/08/13 09:43:19;;;;;;;;;;;;;;;;;;5074853;28;1501;-72
2022/08/13 09:45:45;;;;;;;;;;;;;;;;;;5093351;28;1078;-72
2022/08/13 09:48:12;;;;;;;;;;;;;;;;;;5075016;28;1985;-71
2022/08/13 09:50:41;;;;;;;;;;;;;;;;;;5093197;28;1134;-72
2022/08/13 09:53:07;;;;;;;;;;;;;;;;;;5092770;28;1530;-71
2022/08/13 09:55:37;;;;;;;;;;;;;;;;;;5093066;28;1118;-72
2022/08/13 09:58:04;;;;;;;;;;;;;;;;;;5093093;28;1367;-71
2022/08/13 10:00:31;;;;;;;;;;;;;;;;;;5093001;28;1112;-71
2022/08/13 10:02:59;;;;;;;;;;;;;;;;;;5092632;28;848;-71
2022/08/13 10:05:26;;;;;;;;;;;;;;;;;;5093117;28;798;-72
2022/08/13 10:07:53;;;;;;;;;;;;;;;;;;5092383;28;1913;-71
2022/08/13 10:10:20;;;;;;;;;;;;;;;;;;5074713;28;1244;-71
2022/08/13 10:12:46;;;;;;;;;;;;;;;;;;5074509;28;1336;-71
2022/08/13 10:15:13;;;;;;;;;;;;;;;;;;5092691;28;928;-71
2022/08/13 10:17:46;;;;;;;;;;;;;;;;;;5092577;28;1282;-71
2022/08/13 10:20:12;;;;;;;;;;;;;;;;;;5074338;28;1068;-72
2022/08/13 10:22:38;;;;;;;;;;;;;;;;;;5092193;28;1106;-71
2022/08/13 10:25:06;;;;;;;;;;;;;;;;;;5092186;28;999;-71
2022/08/13 10:27:34;;;;;;;;;;;;;;;;;;5076183;28;1986;-72
2022/08/13 10:30:00;;;;;;;;;;;;;;;;;;5052154;28;1108;-73
2022/08/13 10:32:26;;;;;;;;;;;;;;;;;;5039276;28;1344;-71
2022/08/13 10:34:52;;;;;;;;;;;;;;;;;;5052134;28;1158;-71
2022/08/13 10:37:21;;;;;;;;;;;;;;;;;;5033957;28;1322;-71
2022/08/13 10:39:47;;;;;;;;;;;;;;;;;;5034507;28;1147;-71
2022/08/13 10:42:15;;;;;;;;;;;;;;;;;;5052328;28;1431;-71
2022/08/13 10:44:41;;;;;;;;;;;;;;;;;;5067021;28;1435;-72
2022/08/13 10:47:08;;;;;;;;;;;;;;;;;;5084769;28;1479;-72
2022/08/13 10:49:34;;;;;;;;;;;;;;;;;;5085669;28;2022;-73
2022/08/13 10:52:00;;;;;;;;;;;;;;;;;;5091805;28;1080;-72
2022/08/13 10:54:27;;;;;;;;;;;;;;;;;;5066579;28;1548;-70
2022/08/13 10:56:54;;;;;;;;;;;;;;;;;;5074721;28;1689;-71
2022/08/13 10:59:21;;;;;;;;;;;;;;;;;;5073368;28;1422;-71
2022/08/13 11:01:48;;;;;;;;;;;;;;;;;;5055765;28;1463;-73
2022/08/13 11:04:14;;;;;;;;;;;;;;;;;;5051791;28;908;-72
2022/08/13 11:06:41;;;;;;;;;;;;;;;;;;5053325;28;1310;-73
2022/08/13 11:09:07;;;;;;;;;;;;;;;;;;5052953;28;1973;-71
2022/08/13 11:11:34;;;;;;;;;;;;;;;;;;5071260;28;952;-72
2022/08/13 11:14:00;;;;;;;;;;;;;;;;;;5062030;28;1391;-71
2022/08/13 11:19:15;;;;;;;;;;;;;;;;;;5073015;28;1471;-71
2022/08/13 11:21:44;;;;;;;;;;;;;;;;;;5079125;28;1482;-72
2022/08/13 11:24:10;;;;;;;;;;;;;;;;;;5078518;28;1438;-70
2022/08/13 11:26:36;;;;;;;;;;;;;;;;;;5081837;28;1605;-70
2022/08/13 11:29:03;;;;;;;;;;;;;;;;;;5073534;28;2370;-70
2022/08/13 11:31:30;;;;;;;;;;;;;;;;;;5040042;28;1475;-72
2022/08/13 11:33:57;;;;;;;;;;;;;;;;;;5051265;28;1087;-69
2022/08/13 11:36:23;;;;;;;;;;;;;;;;;;5032944;28;1339;-72
2022/08/13 11:38:49;;;;;;;;;;;;;;;;;;5059934;28;937;-70
2022/08/13 11:41:15;;;;;;;;;;;;;;;;;;5070731;28;1070;-70
2022/08/13 11:43:41;;;;;;;;;;;;;;;;;;5057905;28;1415;-72
2022/08/13 11:46:08;;;;;;;;;;;;;;;;;;5057164;28;1424;-71
2022/08/13 11:48:35;;;;;;;;;;;;;;;;;;5077052;28;1910;-71
2022/08/13 11:51:01;;;;;;;;;;;;;;;;;;5078981;28;1586;-71
2022/08/13 11:53:28;;;;;;;;;;;;;;;;;;5077715;28;1471;-71
2022/08/13 11:55:54;;;;;;;;;;;;;;;;;;5072822;28;1487;-71
2022/08/13 11:58:20;;;;;;;;;;;;;;;;;;5071100;28;1546;-71
2022/08/13 12:00:46;;;;;;;;;;;;;;;;;;5086083;28;1157;-71
2022/08/13 12:03:13;;;;;;;;;;;;;;;;;;5072422;28;1124;-71
2022/08/13 12:05:40;;;;;;;;;;;;;;;;;;5090910;28;1075;-72
2022/08/13 12:08:12;;;;;;;;;;;;;;;;;;5090547;28;1914;-72
2022/08/13 12:10:39;;;;;;;;;;;;;;;;;;5090826;28;1075;-72
2022/08/13 12:13:05;;;;;;;;;;;;;;;;;;5090490;28;790;-72
2022/08/13 12:15:31;;;;;;;;;;;;;;;;;;5072954;28;1180;-72
2022/08/13 12:17:57;;;;;;;;;;;;;;;;;;5091313;28;1404;-72
2022/08/13 12:20:24;;;;;;;;;;;;;;;;;;5092591;28;1079;-72
2022/08/13 12:22:52;;;;;;;;;;;;;;;;;;5068418;28;1435;-73
2022/08/13 12:25:18;;;;;;;;;;;;;;;;;;5054705;28;965;-72
2022/08/13 12:27:44;;;;;;;;;;;;;;;;;;5054500;28;1304;-72
2022/08/13 12:30:10;;;;;;;;;;;;;;;;;;5036592;28;1910;-72
2022/08/13 12:32:37;;;;;;;;;;;;;;;;;;5036207;28;1277;-72
2022/08/13 12:35:03;;;;;;;;;;;;;;;;;;5054544;28;1060;-72
2022/08/13 12:37:29;;;;;;;;;;;;;;;;;;5054380;28;1384;-71
2022/08/13 12:39:57;;;;;;;;;;;;;;;;;;5036491;28;1137;-72
2022/08/13 12:42:24;;;;;;;;;;;;;;;;;;5054070;28;893;-71
2022/08/13 12:44:50;;;;;;;;;;;;;;;;;;5036465;28;1290;-72
2022/08/13 12:47:16;;;;;;;;;;;;;;;;;;5036254;28;1324;-72
2022/08/13 12:49:42;;;;;;;;;;;;;;;;;;5053811;28;1910;-71
2022/08/13 12:52:08;;;;;;;;;;;;;;;;;;5053671;28;928;-71
2022/08/13 12:54:35;;;;;;;;;;;;;;;;;;5036354;28;1152;-72
2022/08/13 12:57:03;;;;;;;;;;;;;;;;;;5054086;28;1309;-72
2022/08/13 12:59:29;;;;;;;;;;;;;;;;;;5036151;28;1242;-72
2022/08/13 13:01:58;;;;;;;;;;;;;;;;;;5035722;28;1405;-72
2022/08/13 13:04:24;;;;;;;;;;;;;;;;;;5054167;28;869;-72
2022/08/13 13:06:51;;;;;;;;;;;;;;;;;;5053737;28;1333;-72
2022/08/13 13:09:17;;;;;;;;;;;;;;;;;;5053822;28;1974;-74
2022/08/13 13:11:43;;;;;;;;;;;;;;;;;;5053477;28;1116;-72
2022/08/13 13:14:11;;;;;;;;;;;;;;;;;;5053734;28;1149;-73
2022/08/13 13:16:38;;;;;;;;;;;;;;;;;;5053809;28;1331;-73
2022/08/13 13:19:05;;;;;;;;;;;;;;;;;;5053636;28;1071;-73
2022/08/13 13:21:31;;;;;;;;;;;;;;;;;;5053351;28;1205;-73
2022/08/13 13:23:57;;;;;;;;;;;;;;;;;;5053511;28;952;-74
2022/08/13 13:26:23;;;;;;;;;;;;;;;;;;5053283;28;1333;-74
2022/08/13 13:28:52;;;;;;;;;;;;;;;;;;5053548;28;1927;-74
2022/08/13 13:31:19;;;;;;;;;;;;;;;;;;5052465;28;1116;-74
2022/08/13 13:33:45;;;;;;;;;;;;;;;;;;5053579;28;1039;-74
2022/08/13 13:36:12;;;;;;;;;;;;;;;;;;5053490;28;1318;-74
2022/08/13 13:38:40;;;;;;;;;;;;;;;;;;5035707;28;1136;-74
2022/08/13 13:41:07;;;;;;;;;;;;;;;;;;5053068;28;886;-73
2022/08/13 13:43:34;;;;;;;;;;;;;;;;;;5052919;28;837;-74
2022/08/13 13:46:00;;;;;;;;;;;;;;;;;;5053439;28;1409;-74
2022/08/13 13:48:28;;;;;;;;;;;;;;;;;;5054575;28;779;-74
2022/08/13 13:50:56;;;;;;;;;;;;;;;;;;5053127;28;1989;-74
2022/08/13 13:53:22;;;;;;;;;;;;;;;;;;5052644;28;1341;-73
2022/08/13 13:55:48;;;;;;;;;;;;;;;;;;5053078;28;1337;-74
2022/08/13 13:58:17;;;;;;;;;;;;;;;;;;5035049;28;1339;-74
2022/08/13 14:00:43;;;;;;;;;;;;;;;;;;5052617;28;1123;-75
2022/08/13 14:03:10;;;;;;;;;;;;;;;;;;5052390;28;786;-75
2022/08/13 14:05:39;;;;;;;;;;;;;;;;;;5052844;28;1080;-75
2022/08/13 14:08:05;;;;;;;;;;;;;;;;;;5052879;28;1325;-74
2022/08/13 14:10:32;;;;;;;;;;;;;;;;;;5052664;28;1974;-75
2022/08/13 14:12:59;;;;;;;;;;;;;;;;;;5052558;28;1124;-74
2022/08/13 14:15:26;;;;;;;;;;;;;;;;;;5043009;28;1523;-75
2022/08/13 14:17:54;;;;;;;;;;;;;;;;;;5071894;28;1368;-74
2022/08/13 14:20:21;;;;;;;;;;;;;;;;;;5072381;28;735;-75
2022/08/13 14:22:48;;;;;;;;;;;;;;;;;;5072130;28;948;-74
2022/08/13 14:25:16;;;;;;;;;;;;;;;;;;5072315;28;1127;-73
2022/08/13 14:27:43;;;;;;;;;;;;;;;;;;5054493;28;1481;-74
2022/08/13 14:30:10;;;;;;;;;;;;;;;;;;5072050;28;1965;-73
2022/08/13 14:32:36;;;;;;;;;;;;;;;;;;5072502;28;802;-74
2022/08/13 14:35:03;;;;;;;;;;;;;;;;;;5072424;28;961;-74
2022/08/13 14:37:29;;;;;;;;;;;;;;;;;;5071871;28;1386;-74
2022/08/13 14:39:57;;;;;;;;;;;;;;;;;;5072069;28;1127;-74
2022/08/13 14:42:26;;;;;;;;;;;;;;;;;;5070751;28;1052;-74
2022/08/13 14:45:39;;;;;;;;;;;;;;;;;;5072085;28;1051;-74
2022/08/13 14:47:39;;;;;;;;;;;;;;;;;;5071784;28;1423;-74
2022/08/13 14:50:05;;;;;;;;;;;;;;;;;;5071748;28;1979;-74
2022/08/13 14:52:32;;;;;;;;;;;;;;;;;;5071585;28;1075;-75
2022/08/13 14:54:59;;;;;;;;;;;;;;;;;;5053477;28;2133;-75
2022/08/13 14:57:25;;;;;;;;;;;;;;;;;;5053917;28;1330;-75
2022/08/13 14:59:51;;;;;;;;;;;;;;;;;;5071912;28;1067;-75
2022/08/13 15:02:18;;;;;;;;;;;;;;;;;;5071295;28;1055;-75
2022/08/13 15:04:44;;;;;;;;;;;;;;;;;;5054033;28;1183;-74
2022/08/13 15:07:10;;;;;;;;;;;;;;;;;;5071533;28;1434;-74
2022/08/13 15:09:37;;;;;;;;;;;;;;;;;;5053794;28;1919;-75
2022/08/13 15:12:05;;;;;;;;;;;;;;;;;;5071276;28;1095;-74
2022/08/13 15:14:31;;;;;;;;;;;;;;;;;;5053476;28;1158;-74
2022/08/13 15:17:03;;;;;;;;;;;;;;;;;;5071464;28;1323;-74
2022/08/13 15:19:29;;;;;;;;;;;;;;;;;;5054637;28;1231;-75
2022/08/13 15:21:55;;;;;;;;;;;;;;;;;;5053539;28;1128;-75
2022/08/13 15:24:26;;;;;;;;;;;;;;;;;;5071296;28;1067;-75
2022/08/13 15:26:53;;;;;;;;;;;;;;;;;;5071356;28;1302;-75
2022/08/13 15:29:20;;;;;;;;;;;;;;;;;;5071152;28;1938;-75
2022/08/13 15:31:46;;;;;;;;;;;;;;;;;;5070929;28;1063;-76
2022/08/13 15:34:12;;;;;;;;;;;;;;;;;;5072318;28;1601;-74
2022/08/13 15:36:39;;;;;;;;;;;;;;;;;;5082702;28;1334;-75
2022/08/13 15:39:06;;;;;;;;;;;;;;;;;;5091510;28;818;-75
2022/08/13 15:41:33;;;;;;;;;;;;;;;;;;5091277;28;972;-75
2022/08/13 15:43:59;;;;;;;;;;;;;;;;;;5091061;28;833;-75
2022/08/13 15:46:27;;;;;;;;;;;;;;;;;;5091316;28;1394;-75
2022/08/13 15:48:56;;;;;;;;;;;;;;;;;;5073027;28;1023;-75
2022/08/13 15:51:22;;;;;;;;;;;;;;;;;;5090956;28;1918;-75
2022/08/13 15:53:48;;;;;;;;;;;;;;;;;;5093068;28;987;-75
2022/08/13 15:56:14;;;;;;;;;;;;;;;;;;5079859;28;1365;-76
2022/08/13 15:58:42;;;;;;;;;;;;;;;;;;5098115;28;1111;-76
2022/08/13 16:01:09;;;;;;;;;;;;;;;;;;5097963;28;893;-75
2022/08/13 16:03:36;;;;;;;;;;;;;;;;;;5073792;28;1450;-75
2022/08/13 16:06:03;;;;;;;;;;;;;;;;;;5091149;28;1490;-75
2022/08/13 16:08:30;;;;;;;;;;;;;;;;;;5072984;28;1224;-76
2022/08/13 16:10:58;;;;;;;;;;;;;;;;;;5093365;28;1967;-76
2022/08/13 16:13:24;;;;;;;;;;;;;;;;;;5088792;28;1113;-75
2022/08/13 16:15:50;;;;;;;;;;;;;;;;;;5079613;28;1467;-75
2022/08/13 16:18:17;;;;;;;;;;;;;;;;;;5097698;28;984;-76
2022/08/13 16:20:45;;;;;;;;;;;;;;;;;;5090233;28;1446;-76
2022/08/13 16:23:12;;;;;;;;;;;;;;;;;;5065855;28;1475;-75
2022/08/13 16:25:38;;;;;;;;;;;;;;;;;;5071033;28;1218;-75
2022/08/13 16:28:06;;;;;;;;;;;;;;;;;;5081643;28;1467;-75
2022/08/13 16:30:34;;;;;;;;;;;;;;;;;;5079186;28;1937;-75
2022/08/13 16:33:01;;;;;;;;;;;;;;;;;;5091111;28;1113;-75
2022/08/13 16:35:28;;;;;;;;;;;;;;;;;;5058658;28;1115;-76
2022/08/13 16:37:56;;;;;;;;;;;;;;;;;;5055475;28;1419;-76
2022/08/13 16:40:23;;;;;;;;;;;;;;;;;;5055278;28;1020;-76
2022/08/13 16:42:49;;;;;;;;;;;;;;;;;;5073539;28;1439;-76
2022/08/13 16:45:16;;;;;;;;;;;;;;;;;;5068818;28;1209;-76
2022/08/13 16:47:43;;;;;;;;;;;;;;;;;;5068759;28;1492;-76
2022/08/13 16:50:09;;;;;;;;;;;;;;;;;;5082132;28;1997;-75
2022/08/13 16:52:36;;;;;;;;;;;;;;;;;;5059486;28;1542;-76
2022/08/13 16:55:03;;;;;;;;;;;;;;;;;;5077254;28;1372;-77
2022/08/13 16:57:30;;;;;;;;;;;;;;;;;;5086876;28;1395;-77
2022/08/13 16:59:58;;;;;;;;;;;;;;;;;;5093578;28;1411;-76
2022/08/13 17:09:10;;;;;;;;;;;;;;;;;;5056387;28;1442;-75
2022/08/13 17:10:39;;;;;;;;;;;;;;;;;;5068381;28;1967;-75
2022/08/13 17:13:05;;;;;;;;;;;;;;;;;;5067179;28;1383;-75
2022/08/13 17:15:32;;;;;;;;;;;;;;;;;;5093948;28;1139;-76
2022/08/13 17:17:58;;;;;;;;;;;;;;;;;;5081049;28;1451;-76
2022/08/13 17:20:26;;;;;;;;;;;;;;;;;;5085218;28;1220;-76
2022/08/13 17:22:53;;;;;;;;;;;;;;;;;;5093473;28;1019;-75
2022/08/13 17:25:19;;;;;;;;;;;;;;;;;;5093776;28;715;-75
2022/08/13 17:27:47;;;;;;;;;;;;;;;;;;5078983;28;1422;-75
2022/08/13 17:30:14;;;;;;;;;;;;;;;;;;5077973;28;1918;-74